Asian Infinity — 3EVP3 — position and weather

sailwx.info

Track history (hours):
 
Tides and Currents Weather Stations Pressure Air Temp Water Temp Dewpoint Dewpoint Depression Visibility Wind Speed Wind Dir Waves Ship Positions

Asian Infinity

Last reported at 2017-Jul-25 05:51 UTC. Time now 2017-Jul-26 02:42 UTC.
Position N 34°57' E 139°25'.

Length 104 m; draft 5.1 m.

Type: Cargo ship. MMSI: 351868000.

Date/timePositionNaut miles runAvg speedWind from/ knotsBaromVisibWave heightAir tempDewpointWater temp
2017-Jul-25 05:51N 34°57' E 139°25'3 7.2
2017-Jul-25 05:30N 34°58' E 139°27'4 7.1
2017-Jul-25 05:00N 34°60' E 139°31'4 7.7
2017-Jul-25 04:30N 35°02' E 139°35'5 9.2
2017-Jul-25 04:00N 35°05' E 139°40'5 9.8
2017-Jul-25 03:30N 35°08' E 139°44'5 9.5
2017-Jul-25 03:00N 35°12' E 139°46'5 9.8
2017-Jul-25 02:30N 35°17' E 139°45'510.0
2017-Jul-25 02:00N 35°22' E 139°42'5 9.2
2017-Jul-25 01:30N 35°26' E 139°42'2 3.4
2017-Jul-25 01:00N 35°27' E 139°40'0 0.1
2017-Jul-25 00:30N 35°27' E 139°40'0 0.1
2017-Jul-25 00:00N 35°27' E 139°40'0 0.0
2017-Jul-24 23:30N 35°27' E 139°40'0 0.1
2017-Jul-24 23:00N 35°27' E 139°40'0 0.1
2017-Jul-24 22:30N 35°27' E 139°40'0 0.0
2017-Jul-24 22:00N 35°27' E 139°40'0 0.0
2017-Jul-24 21:30N 35°27' E 139°40'0 0.1
2017-Jul-24 21:00N 35°27' E 139°40'0 0.1
2017-Jul-24 20:30N 35°27' E 139°40'0 0.1
2017-Jul-24 20:00N 35°27' E 139°40'0 0.1
2017-Jul-24 19:30N 35°27' E 139°40'0 0.0
2017-Jul-24 19:00N 35°27' E 139°40'0 0.0
2017-Jul-24 18:30N 35°27' E 139°40'0 0.0
2017-Jul-24 18:00N 35°27' E 139°40'0 0.0
2017-Jul-24 17:30N 35°27' E 139°40'0 0.0
2017-Jul-24 17:00N 35°27' E 139°40'0 0.0
2017-Jul-24 16:30N 35°27' E 139°40'0 0.0
2017-Jul-24 16:00N 35°27' E 139°40'0 0.0
2017-Jul-24 13:00N 35°27' E 139°40'0 0.0
2017-Jul-24 12:30N 35°27' E 139°40'0 0.0
2017-Jul-24 12:00N 35°27' E 139°40'0 0.1
2017-Jul-24 11:30N 35°27' E 139°40'0 0.1
2017-Jul-24 11:00N 35°27' E 139°40'0 0.0
2017-Jul-24 10:30N 35°27' E 139°40'0 0.1
2017-Jul-24 10:00N 35°27' E 139°40'0 0.1
2017-Jul-24 09:30N 35°27' E 139°40'0 0.0
2017-Jul-24 09:00N 35°27' E 139°40'0 0.0
2017-Jul-24 08:30N 35°27' E 139°40'0 0.0
2017-Jul-24 08:00N 35°27' E 139°40'0 0.1
2017-Jul-24 07:30N 35°27' E 139°40'0 0.1
2017-Jul-24 07:00N 35°27' E 139°40'0 0.0
2017-Jul-24 06:30N 35°27' E 139°40'0 0.0
2017-Jul-24 06:00N 35°27' E 139°40'0 0.0
2017-Jul-24 05:30N 35°27' E 139°40'0 0.0
2017-Jul-24 05:00N 35°27' E 139°40'0 0.0
2017-Jul-24 04:30N 35°27' E 139°40'0 0.1
2017-Jul-24 04:00N 35°27' E 139°40'0 0.0
2017-Jul-24 03:30N 35°27' E 139°40'0 0.1
2017-Jul-24 03:00N 35°27' E 139°40'0 0.1
2017-Jul-24 02:30N 35°27' E 139°40'0 0.1
2017-Jul-24 02:00N 35°27' E 139°40'0 0.0
2017-Jul-24 01:30N 35°27' E 139°40'0 0.1
2017-Jul-24 01:00N 35°27' E 139°40'0 0.1
2017-Jul-24 00:30N 35°27' E 139°40'0 0.0
2017-Jul-24 00:00N 35°27' E 139°40'0 0.1
2017-Jul-23 23:30N 35°27' E 139°40'0 0.1
2017-Jul-23 23:00N 35°27' E 139°40'0 0.0
2017-Jul-23 22:30N 35°27' E 139°40'0 0.1
2017-Jul-23 22:00N 35°27' E 139°40'0 0.1
2017-Jul-23 21:30N 35°27' E 139°40'0 0.0
2017-Jul-23 21:00N 35°27' E 139°40'0 0.0
2017-Jul-23 20:30N 35°27' E 139°40'0 0.1
2017-Jul-23 19:57N 35°27' E 139°40'0 0.1
2017-Jul-23 19:30N 35°27' E 139°40'0 0.1
2017-Jul-23 19:00N 35°27' E 139°40'0 0.1
2017-Jul-23 18:30N 35°27' E 139°40'0 0.0
2017-Jul-23 18:00N 35°27' E 139°40'0 0.0
2017-Jul-23 17:30N 35°27' E 139°40'0 0.1
2017-Jul-23 16:57N 35°27' E 139°40'0 0.1
2017-Jul-23 16:30N 35°27' E 139°40'0 0.0
2017-Jul-23 16:00N 35°27' E 139°40'0 0.0
2017-Jul-23 15:30N 35°27' E 139°40'0 0.1
2017-Jul-23 15:00N 35°27' E 139°40'0 0.0
2017-Jul-23 14:30N 35°27' E 139°40'0 0.1
2017-Jul-23 14:00N 35°27' E 139°40'0 0.0
2017-Jul-23 13:30N 35°27' E 139°40'0 0.0
2017-Jul-23 13:00N 35°27' E 139°40'0 0.0
2017-Jul-23 12:30N 35°27' E 139°40'0 0.0
2017-Jul-23 12:00N 35°27' E 139°40'0 0.0
2017-Jul-23 11:30N 35°27' E 139°40'0 0.1
2017-Jul-23 11:00N 35°27' E 139°40'0 0.1
2017-Jul-23 10:30N 35°27' E 139°40'0 0.1
2017-Jul-23 10:00N 35°27' E 139°40'0 0.0
2017-Jul-23 09:30N 35°27' E 139°40'0 0.0
2017-Jul-23 09:00N 35°27' E 139°40'0 0.1
2017-Jul-23 08:30N 35°27' E 139°40'0 0.1
2017-Jul-23 07:57N 35°27' E 139°40'0 0.1
2017-Jul-23 07:30N 35°27' E 139°40'0 0.1
2017-Jul-23 07:00N 35°27' E 139°40'0 0.0
2017-Jul-23 06:30N 35°27' E 139°40'0 0.1
2017-Jul-23 06:00N 35°27' E 139°40'0 0.1
2017-Jul-23 05:30N 35°27' E 139°40'0 0.0
2017-Jul-23 05:00N 35°27' E 139°40'0 0.1
2017-Jul-23 04:30N 35°27' E 139°40'0 0.1
2017-Jul-23 04:00N 35°27' E 139°40'0 0.1
2017-Jul-23 03:30N 35°27' E 139°40'0 0.0
2017-Jul-23 03:00N 35°27' E 139°40'0 0.1
2017-Jul-23 02:30N 35°27' E 139°40'0 0.0
2017-Jul-23 02:00N 35°27' E 139°40'0 0.0
2017-Jul-23 01:30N 35°27' E 139°40'0 0.0
2017-Jul-23 01:00N 35°27' E 139°40'0 0.1
2017-Jul-23 00:30N 35°27' E 139°40'0 0.1
2017-Jul-23 00:00N 35°27' E 139°40'0 0.1
2017-Jul-22 23:30N 35°27' E 139°40'0 0.1
2017-Jul-22 23:00N 35°27' E 139°40'0 0.0
2017-Jul-22 22:30N 35°27' E 139°40'0 0.0
2017-Jul-22 22:00N 35°27' E 139°40'0 0.0
2017-Jul-22 21:30N 35°27' E 139°40'0 0.1
2017-Jul-22 21:00N 35°27' E 139°40'0 0.1
2017-Jul-22 20:30N 35°27' E 139°40'0 0.0
2017-Jul-22 20:00N 35°27' E 139°40'0 0.1
2017-Jul-22 19:30N 35°27' E 139°40'0 0.0
2017-Jul-22 19:00N 35°27' E 139°40'0 0.1
2017-Jul-22 18:30N 35°27' E 139°40'0 0.0
2017-Jul-22 18:00N 35°27' E 139°40'0 0.1
2017-Jul-22 17:30N 35°27' E 139°40'0 0.1
2017-Jul-22 17:00N 35°27' E 139°40'0 0.0
2017-Jul-22 16:30N 35°27' E 139°40'0 0.0
2017-Jul-22 16:00N 35°27' E 139°40'0 0.1
2017-Jul-22 15:30N 35°27' E 139°40'0 0.0
2017-Jul-22 15:00N 35°27' E 139°40'0 0.0
2017-Jul-22 14:00N 35°27' E 139°40'0 0.1
2017-Jul-22 13:30N 35°27' E 139°40'0 0.1
2017-Jul-22 13:00N 35°27' E 139°40'0 0.0
2017-Jul-22 12:30N 35°27' E 139°40'0 0.0
2017-Jul-22 12:00N 35°27' E 139°40'0 0.1
2017-Jul-22 11:30N 35°27' E 139°40'0 0.1
2017-Jul-22 11:00N 35°27' E 139°40'0 0.1
2017-Jul-22 10:30N 35°27' E 139°40'0 0.1
2017-Jul-22 10:00N 35°27' E 139°40'0 0.0
2017-Jul-22 09:30N 35°27' E 139°40'0 0.0
2017-Jul-22 09:00N 35°27' E 139°40'0 0.0
2017-Jul-22 08:30N 35°27' E 139°40'0 0.0
2017-Jul-22 08:00N 35°27' E 139°40'0 0.0
2017-Jul-22 07:30N 35°27' E 139°40'0 0.1
2017-Jul-22 07:00N 35°27' E 139°40'0 0.0
2017-Jul-22 06:30N 35°27' E 139°40'0 0.1
2017-Jul-22 06:00N 35°27' E 139°40'0 0.1
2017-Jul-22 05:30N 35°27' E 139°40'0 0.1
2017-Jul-22 05:00N 35°27' E 139°40'0 0.0
2017-Jul-22 04:30N 35°27' E 139°40'0 0.1
2017-Jul-22 04:00N 35°27' E 139°40'0 0.1
2017-Jul-22 03:30N 35°27' E 139°40'0 0.0
2017-Jul-22 03:00N 35°27' E 139°40'0 0.0
2017-Jul-22 02:30N 35°27' E 139°40'0 0.0
2017-Jul-22 02:00N 35°27' E 139°40'0 0.0
2017-Jul-22 01:30N 35°27' E 139°40'0 0.7
2017-Jul-22 01:00N 35°27' E 139°40'2 4.1
2017-Jul-22 00:30N 35°26' E 139°42'3 6.3
2017-Jul-22 00:00N 35°23' E 139°43'3 6.8
2017-Jul-21 23:30N 35°20' E 139°43'5 9.6
2017-Jul-21 23:00N 35°16' E 139°46'4 7.8
2017-Jul-21 22:30N 35°12' E 139°47'4 8.1
2017-Jul-21 22:00N 35°08' E 139°47'611.4
2017-Jul-21 21:30N 35°02' E 139°45'5 9.5
2017-Jul-21 21:00N 35°00' E 139°40'611.2
2017-Jul-21 20:30N 34°59' E 139°33'611.8
2017-Jul-21 20:00N 34°55' E 139°27'812.1
2017-Jul-21 19:22N 34°50' E 139°20'  
2017-Jul-15 12:24N 33°50' E 124°36'  
Track history (hours):
 
Tides and Currents Weather Stations Pressure Air Temp Water Temp Dewpoint Dewpoint Depression Visibility Wind Speed Wind Dir Waves Ship Positions

Asian Infinity

Last reported at 2017-Jul-25 05:51 UTC. Time now 2017-Jul-26 02:42 UTC.
Position N 34°57' E 139°25'.

Length 104 m; draft 5.1 m.

Type: Cargo ship. MMSI: 351868000.

Date/timePositionNaut miles runAvg speedWind from/ knotsBaromVisibWave heightAir tempDewpointWater temp
2017-Jul-25 05:51N 34°57' E 139°25'3 7.2
2017-Jul-25 05:30N 34°58' E 139°27'4 7.1
2017-Jul-25 05:00N 34°60' E 139°31'4 7.7
2017-Jul-25 04:30N 35°02' E 139°35'5 9.2
2017-Jul-25 04:00N 35°05' E 139°40'5 9.8
2017-Jul-25 03:30N 35°08' E 139°44'5 9.5
2017-Jul-25 03:00N 35°12' E 139°46'5 9.8
2017-Jul-25 02:30N 35°17' E 139°45'510.0
2017-Jul-25 02:00N 35°22' E 139°42'5 9.2
2017-Jul-25 01:30N 35°26' E 139°42'2 3.4
2017-Jul-25 01:00N 35°27' E 139°40'0 0.1
2017-Jul-25 00:30N 35°27' E 139°40'0 0.1
2017-Jul-25 00:00N 35°27' E 139°40'0 0.0
2017-Jul-24 23:30N 35°27' E 139°40'0 0.1
2017-Jul-24 23:00N 35°27' E 139°40'0 0.1
2017-Jul-24 22:30N 35°27' E 139°40'0 0.0
2017-Jul-24 22:00N 35°27' E 139°40'0 0.0
2017-Jul-24 21:30N 35°27' E 139°40'0 0.1
2017-Jul-24 21:00N 35°27' E 139°40'0 0.1
2017-Jul-24 20:30N 35°27' E 139°40'0 0.1
2017-Jul-24 20:00N 35°27' E 139°40'0 0.1
2017-Jul-24 19:30N 35°27' E 139°40'0 0.0
2017-Jul-24 19:00N 35°27' E 139°40'0 0.0
2017-Jul-24 18:30N 35°27' E 139°40'0 0.0
2017-Jul-24 18:00N 35°27' E 139°40'0 0.0
2017-Jul-24 17:30N 35°27' E 139°40'0 0.0
2017-Jul-24 17:00N 35°27' E 139°40'0 0.0
2017-Jul-24 16:30N 35°27' E 139°40'0 0.0
2017-Jul-24 16:00N 35°27' E 139°40'0 0.0
2017-Jul-24 13:00N 35°27' E 139°40'0 0.0
2017-Jul-24 12:30N 35°27' E 139°40'0 0.0
2017-Jul-24 12:00N 35°27' E 139°40'0 0.1
2017-Jul-24 11:30N 35°27' E 139°40'0 0.1
2017-Jul-24 11:00N 35°27' E 139°40'0 0.0
2017-Jul-24 10:30N 35°27' E 139°40'0 0.1
2017-Jul-24 10:00N 35°27' E 139°40'0 0.1
2017-Jul-24 09:30N 35°27' E 139°40'0 0.0
2017-Jul-24 09:00N 35°27' E 139°40'0 0.0
2017-Jul-24 08:30N 35°27' E 139°40'0 0.0
2017-Jul-24 08:00N 35°27' E 139°40'0 0.1
2017-Jul-24 07:30N 35°27' E 139°40'0 0.1
2017-Jul-24 07:00N 35°27' E 139°40'0 0.0
2017-Jul-24 06:30N 35°27' E 139°40'0 0.0
2017-Jul-24 06:00N 35°27' E 139°40'0 0.0
2017-Jul-24 05:30N 35°27' E 139°40'0 0.0
2017-Jul-24 05:00N 35°27' E 139°40'0 0.0
2017-Jul-24 04:30N 35°27' E 139°40'0 0.1
2017-Jul-24 04:00N 35°27' E 139°40'0 0.0
2017-Jul-24 03:30N 35°27' E 139°40'0 0.1
2017-Jul-24 03:00N 35°27' E 139°40'0 0.1
2017-Jul-24 02:30N 35°27' E 139°40'0 0.1
2017-Jul-24 02:00N 35°27' E 139°40'0 0.0
2017-Jul-24 01:30N 35°27' E 139°40'0 0.1
2017-Jul-24 01:00N 35°27' E 139°40'0 0.1
2017-Jul-24 00:30N 35°27' E 139°40'0 0.0
2017-Jul-24 00:00N 35°27' E 139°40'0 0.1
2017-Jul-23 23:30N 35°27' E 139°40'0 0.1
2017-Jul-23 23:00N 35°27' E 139°40'0 0.0
2017-Jul-23 22:30N 35°27' E 139°40'0 0.1
2017-Jul-23 22:00N 35°27' E 139°40'0 0.1
2017-Jul-23 21:30N 35°27' E 139°40'0 0.0
2017-Jul-23 21:00N 35°27' E 139°40'0 0.0
2017-Jul-23 20:30N 35°27' E 139°40'0 0.1
2017-Jul-23 19:57N 35°27' E 139°40'0 0.1
2017-Jul-23 19:30N 35°27' E 139°40'0 0.1
2017-Jul-23 19:00N 35°27' E 139°40'0 0.1
2017-Jul-23 18:30N 35°27' E 139°40'0 0.0
2017-Jul-23 18:00N 35°27' E 139°40'0 0.0
2017-Jul-23 17:30N 35°27' E 139°40'0 0.1
2017-Jul-23 16:57N 35°27' E 139°40'0 0.1
2017-Jul-23 16:30N 35°27' E 139°40'0 0.0
2017-Jul-23 16:00N 35°27' E 139°40'0 0.0
2017-Jul-23 15:30N 35°27' E 139°40'0 0.1
2017-Jul-23 15:00N 35°27' E 139°40'0 0.0
2017-Jul-23 14:30N 35°27' E 139°40'0 0.1
2017-Jul-23 14:00N 35°27' E 139°40'0 0.0
2017-Jul-23 13:30N 35°27' E 139°40'0 0.0
2017-Jul-23 13:00N 35°27' E 139°40'0 0.0
2017-Jul-23 12:30N 35°27' E 139°40'0 0.0
2017-Jul-23 12:00N 35°27' E 139°40'0 0.0
2017-Jul-23 11:30N 35°27' E 139°40'0 0.1
2017-Jul-23 11:00N 35°27' E 139°40'0 0.1
2017-Jul-23 10:30N 35°27' E 139°40'0 0.1
2017-Jul-23 10:00N 35°27' E 139°40'0 0.0
2017-Jul-23 09:30N 35°27' E 139°40'0 0.0
2017-Jul-23 09:00N 35°27' E 139°40'0 0.1
2017-Jul-23 08:30N 35°27' E 139°40'0 0.1
2017-Jul-23 07:57N 35°27' E 139°40'0 0.1
2017-Jul-23 07:30N 35°27' E 139°40'0 0.1
2017-Jul-23 07:00N 35°27' E 139°40'0 0.0
2017-Jul-23 06:30N 35°27' E 139°40'0 0.1
2017-Jul-23 06:00N 35°27' E 139°40'0 0.1
2017-Jul-23 05:30N 35°27' E 139°40'0 0.0
2017-Jul-23 05:00N 35°27' E 139°40'0 0.1
2017-Jul-23 04:30N 35°27' E 139°40'0 0.1
2017-Jul-23 04:00N 35°27' E 139°40'0 0.1
2017-Jul-23 03:30N 35°27' E 139°40'0 0.0
2017-Jul-23 03:00N 35°27' E 139°40'0 0.1
2017-Jul-23 02:30N 35°27' E 139°40'0 0.0
2017-Jul-23 02:00N 35°27' E 139°40'0 0.0
2017-Jul-23 01:30N 35°27' E 139°40'0 0.0
2017-Jul-23 01:00N 35°27' E 139°40'0 0.1
2017-Jul-23 00:30N 35°27' E 139°40'0 0.1
2017-Jul-23 00:00N 35°27' E 139°40'0 0.1
2017-Jul-22 23:30N 35°27' E 139°40'0 0.1
2017-Jul-22 23:00N 35°27' E 139°40'0 0.0
2017-Jul-22 22:30N 35°27' E 139°40'0 0.0
2017-Jul-22 22:00N 35°27' E 139°40'0 0.0
2017-Jul-22 21:30N 35°27' E 139°40'0 0.1
2017-Jul-22 21:00N 35°27' E 139°40'0 0.1
2017-Jul-22 20:30N 35°27' E 139°40'0 0.0
2017-Jul-22 20:00N 35°27' E 139°40'0 0.1
2017-Jul-22 19:30N 35°27' E 139°40'0 0.0
2017-Jul-22 19:00N 35°27' E 139°40'0 0.1
2017-Jul-22 18:30N 35°27' E 139°40'0 0.0
2017-Jul-22 18:00N 35°27' E 139°40'0 0.1
2017-Jul-22 17:30N 35°27' E 139°40'0 0.1
2017-Jul-22 17:00N 35°27' E 139°40'0 0.0
2017-Jul-22 16:30N 35°27' E 139°40'0 0.0
2017-Jul-22 16:00N 35°27' E 139°40'0 0.1
2017-Jul-22 15:30N 35°27' E 139°40'0 0.0
2017-Jul-22 15:00N 35°27' E 139°40'0 0.0
2017-Jul-22 14:00N 35°27' E 139°40'0 0.1
2017-Jul-22 13:30N 35°27' E 139°40'0 0.1
2017-Jul-22 13:00N 35°27' E 139°40'0 0.0
2017-Jul-22 12:30N 35°27' E 139°40'0 0.0
2017-Jul-22 12:00N 35°27' E 139°40'0 0.1
2017-Jul-22 11:30N 35°27' E 139°40'0 0.1
2017-Jul-22 11:00N 35°27' E 139°40'0 0.1
2017-Jul-22 10:30N 35°27' E 139°40'0 0.1
2017-Jul-22 10:00N 35°27' E 139°40'0 0.0
2017-Jul-22 09:30N 35°27' E 139°40'0 0.0
2017-Jul-22 09:00N 35°27' E 139°40'0 0.0
2017-Jul-22 08:30N 35°27' E 139°40'0 0.0
2017-Jul-22 08:00N 35°27' E 139°40'0 0.0
2017-Jul-22 07:30N 35°27' E 139°40'0 0.1
2017-Jul-22 07:00N 35°27' E 139°40'0 0.0
2017-Jul-22 06:30N 35°27' E 139°40'0 0.1
2017-Jul-22 06:00N 35°27' E 139°40'0 0.1
2017-Jul-22 05:30N 35°27' E 139°40'0 0.1
2017-Jul-22 05:00N 35°27' E 139°40'0 0.0
2017-Jul-22 04:30N 35°27' E 139°40'0 0.1
2017-Jul-22 04:00N 35°27' E 139°40'0 0.1
2017-Jul-22 03:30N 35°27' E 139°40'0 0.0
2017-Jul-22 03:00N 35°27' E 139°40'0 0.0
2017-Jul-22 02:30N 35°27' E 139°40'0 0.0
2017-Jul-22 02:00N 35°27' E 139°40'0 0.0
2017-Jul-22 01:30N 35°27' E 139°40'0 0.7
2017-Jul-22 01:00N 35°27' E 139°40'2 4.1
2017-Jul-22 00:30N 35°26' E 139°42'3 6.3
2017-Jul-22 00:00N 35°23' E 139°43'3 6.8
2017-Jul-21 23:30N 35°20' E 139°43'5 9.6
2017-Jul-21 23:00N 35°16' E 139°46'4 7.8
2017-Jul-21 22:30N 35°12' E 139°47'4 8.1
2017-Jul-21 22:00N 35°08' E 139°47'611.4
2017-Jul-21 21:30N 35°02' E 139°45'5 9.5
2017-Jul-21 21:00N 35°00' E 139°40'611.2
2017-Jul-21 20:30N 34°59' E 139°33'611.8
2017-Jul-21 20:00N 34°55' E 139°27'812.1
2017-Jul-21 19:22N 34°50' E 139°20'  
2017-Jul-15 12:24N 33°50' E 124°36'  

Dump ship's entire track history